Time;durP1;ratioP1;P1;durP2;ratioP2;P2;SDS_P1;SDS_P2;PMS_P1;PMS_P2;Temp;Humidity;BMP_temperature;BMP_pressure;BME280_temperature;BME280_humidity;BME280_pressure;Samples;Min_cycle;Max_cycle;Signal;HPM_P1;HPM_P2
2022/04/19 00:01:43;;;;;;;1.00;1.00;;;19.10;63.30;;;;;;5028100;28;43993;-71
2022/04/19 00:04:11;;;;;;;1.27;1.07;;;19.10;63.60;;;;;;5028047;28;43871;-72
2022/04/19 00:06:39;;;;;;;0.90;0.90;;;19.00;63.70;;;;;;5027794;28;44236;-71
2022/04/19 00:09:10;;;;;;;1.00;1.00;;;18.90;63.80;;;;;;5009406;28;44790;-71
2022/04/19 00:11:38;;;;;;;1.23;1.23;;;18.90;64.00;;;;;;5028300;28;43962;-70
2022/04/19 00:14:08;;;;;;;1.20;1.20;;;18.90;64.10;;;;;;5027874;28;43824;-71
2022/04/19 00:16:36;;;;;;;0.93;0.93;;;18.90;64.20;;;;;;5010460;28;44085;-71
2022/04/19 00:19:06;;;;;;;1.00;1.00;;;18.80;64.20;;;;;;5025619;28;44170;-71
2022/04/19 00:21:34;;;;;;;1.10;1.10;;;18.80;64.60;;;;;;5028035;28;43829;-70
2022/04/19 00:24:01;;;;;;;0.87;0.87;;;18.90;64.60;;;;;;5025807;28;44055;-71
2022/04/19 00:26:29;;;;;;;1.20;1.20;;;19.10;64.30;;;;;;5027778;28;43976;-71
2022/04/19 00:28:57;;;;;;;1.10;1.10;;;19.30;63.80;;;;;;5027419;28;43909;-71
2022/04/19 00:31:26;;;;;;;1.07;1.07;;;19.50;63.30;;;;;;5027870;28;44001;-70
2022/04/19 00:33:55;;;;;;;0.90;0.90;;;19.60;63.00;;;;;;5025873;28;43929;-71
2022/04/19 00:36:24;;;;;;;1.00;1.00;;;19.50;62.70;;;;;;5027542;28;43963;-71
2022/04/19 00:38:56;;;;;;;1.00;1.00;;;19.50;62.70;;;;;;5027054;28;43915;-70
2022/04/19 00:41:24;;;;;;;0.90;0.90;;;19.30;62.60;;;;;;5027487;28;43849;-72
2022/04/19 00:43:54;;;;;;;1.10;1.10;;;19.30;63.00;;;;;;5027533;28;43388;-72
2022/04/19 00:46:23;;;;;;;1.00;1.00;;;19.20;63.20;;;;;;5027168;28;43936;-71
2022/04/19 00:48:52;;;;;;;1.00;1.00;;;19.10;63.40;;;;;;5026025;28;43969;-71
2022/04/19 00:51:22;;;;;;;1.10;1.10;;;19.00;63.60;;;;;;5026248;28;43859;-72
2022/04/19 00:53:51;;;;;;;1.10;1.10;;;19.00;63.80;;;;;;5043479;28;44161;-71
2022/04/19 00:56:19;;;;;;;1.10;1.10;;;19.00;64.40;;;;;;5025606;28;45420;-71
2022/04/19 00:58:47;;;;;;;1.00;1.00;;;19.00;64.40;;;;;;5025626;28;44372;-71
2022/04/19 01:01:15;;;;;;;1.10;1.10;;;19.20;64.10;;;;;;5035894;28;44058;-72
2022/04/19 01:03:44;;;;;;;1.00;1.00;;;19.20;63.70;;;;;;5036403;28;44000;-72
2022/04/19 01:06:18;;;;;;;1.00;1.00;;;19.20;63.30;;;;;;5019287;28;45702;-73
2022/04/19 01:08:48;;;;;;;1.00;1.00;;;19.20;63.30;;;;;;5025786;28;43431;-72
2022/04/19 01:14:07;;;;;;;1.10;1.10;;;19.00;63.50;;;;;;5025233;28;43440;-71
2022/04/19 01:16:37;;;;;;;1.10;1.10;;;19.00;63.70;;;;;;5024744;28;46189;-72
2022/04/19 01:19:06;;;;;;;0.80;0.80;;;18.90;63.80;;;;;;5024711;28;43575;-72
2022/04/19 01:21:45;;;;;;;1.00;1.00;;;18.90;63.90;;;;;;5025473;28;43954;-72
2022/04/19 01:24:15;;;;;;;0.90;0.90;;;18.90;64.00;;;;;;5025631;28;44112;-72
2022/04/19 01:26:44;;;;;;;1.00;1.00;;;18.90;64.10;;;;;;5018643;28;43990;-71
2022/04/19 01:29:13;;;;;;;1.00;1.00;;;18.80;64.50;;;;;;5019659;28;43922;-72
2022/04/19 01:31:43;;;;;;;1.10;1.10;;;18.90;64.50;;;;;;5019337;28;43971;-71
2022/04/19 01:34:12;;;;;;;1.00;1.00;;;19.10;64.40;;;;;;5025105;28;44049;-72
2022/04/19 01:36:40;;;;;;;1.20;1.20;;;19.30;63.80;;;;;;5024669;28;45408;-71
2022/04/19 01:39:11;;;;;;;1.00;1.00;;;19.40;63.30;;;;;;5024236;28;45183;-72
2022/04/19 01:41:45;;;;;;;1.20;1.20;;;19.50;62.90;;;;;;5024922;28;43980;-72
2022/04/19 01:44:15;;;;;;;0.90;0.90;;;19.50;62.80;;;;;;5025129;28;44030;-72
2022/04/19 01:46:43;;;;;;;1.00;1.00;;;19.40;62.70;;;;;;5026165;28;43941;-72
2022/04/19 01:49:12;;;;;;;1.10;1.10;;;19.30;62.90;;;;;;5026180;28;43995;-72
2022/04/19 01:51:40;;;;;;;1.00;1.00;;;19.20;63.00;;;;;;5024733;28;43430;-72
2022/04/19 01:54:11;;;;;;;1.10;1.10;;;19.10;63.20;;;;;;5024395;28;43871;-72
2022/04/19 01:56:39;;;;;;;0.90;0.90;;;19.10;63.50;;;;;;5026169;28;44022;-72
2022/04/19 01:59:15;;;;;;;1.00;1.00;;;19.00;63.60;;;;;;5024660;28;44960;-72
2022/04/19 02:02:04;;;;;;;1.00;1.00;;;19.00;63.80;;;;;;5025524;28;43957;-72
2022/04/19 02:04:33;;;;;;;1.07;1.07;;;18.90;64.20;;;;;;5018539;28;44150;-72
2022/04/19 02:07:01;;;;;;;1.30;1.30;;;19.00;64.40;;;;;;5017320;28;43831;-73
2022/04/19 02:09:30;;;;;;;1.00;1.00;;;19.10;64.20;;;;;;5026308;28;43965;-72
2022/04/19 02:12:05;;;;;;;1.20;1.20;;;19.20;63.70;;;;;;5035309;28;43794;-72
2022/04/19 02:15:02;;;;;;;0.90;0.90;;;19.20;63.30;;;;;;4970661;28;43466;-72
2022/04/19 02:17:33;;;;;;;1.10;1.10;;;19.20;63.20;;;;;;5024450;28;44723;-72
2022/04/19 02:20:02;;;;;;;1.13;1.13;;;19.10;63.30;;;;;;5024256;28;43617;-71
2022/04/19 02:22:30;;;;;;;1.10;1.10;;;19.10;63.50;;;;;;5024163;28;44011;-72
2022/04/19 02:24:59;;;;;;;1.07;1.07;;;19.00;63.60;;;;;;5026136;28;43937;-72
2022/04/19 02:27:31;;;;;;;0.90;0.90;;;19.00;63.80;;;;;;5023386;28;45555;-72
2022/04/19 02:30:04;;;;;;;1.17;1.17;;;18.90;63.80;;;;;;5023843;28;43978;-71
2022/04/19 02:32:33;;;;;;;1.13;1.13;;;18.90;64.00;;;;;;5024523;28;44068;-72
2022/04/19 02:35:02;;;;;;;1.00;1.00;;;18.90;64.10;;;;;;5024262;28;44026;-73
2022/04/19 02:37:32;;;;;;;1.30;1.30;;;18.90;64.20;;;;;;5024438;28;44077;-73
2022/04/19 02:40:01;;;;;;;1.10;1.10;;;18.90;64.60;;;;;;5023989;28;44910;-72
2022/04/19 02:42:30;;;;;;;1.10;1.10;;;19.00;64.50;;;;;;5024471;28;43976;-72
2022/04/19 02:45:00;;;;;;;1.10;1.10;;;19.20;64.10;;;;;;5024258;28;43546;-73
2022/04/19 02:47:31;;;;;;;1.00;1.00;;;19.40;63.70;;;;;;5023951;28;45005;-71
2022/04/19 02:50:03;;;;;;;1.10;1.10;;;19.50;63.10;;;;;;5023687;28;44570;-72
2022/04/19 02:52:31;;;;;;;1.17;1.17;;;19.50;62.80;;;;;;5024375;28;44372;-71
2022/04/19 02:55:01;;;;;;;1.20;1.20;;;19.50;62.80;;;;;;5023702;28;43837;-72
2022/04/19 02:57:29;;;;;;;0.90;0.90;;;19.40;62.80;;;;;;5023839;28;46854;-72
2022/04/19 02:59:57;;;;;;;1.00;1.00;;;19.30;63.00;;;;;;5025009;28;43948;-72
2022/04/19 03:02:25;;;;;;;1.10;1.10;;;19.20;63.20;;;;;;5024317;28;43980;-72
2022/04/19 03:04:53;;;;;;;1.00;1.00;;;19.10;63.30;;;;;;5025380;28;43992;-71
2022/04/19 03:07:23;;;;;;;1.00;1.00;;;19.10;63.60;;;;;;5027253;28;44051;-72
2022/04/19 03:09:52;;;;;;;1.10;1.10;;;19.00;63.70;;;;;;5027490;28;46163;-72
2022/04/19 03:12:21;;;;;;;1.00;1.00;;;18.90;63.90;;;;;;5027179;28;44054;-72
2022/04/19 03:15:01;;;;;;;1.00;1.00;;;18.90;64.30;;;;;;5027026;28;43974;-72
2022/04/19 03:17:29;;;;;;;0.93;0.93;;;19.00;64.50;;;;;;5028295;28;44121;-72
2022/04/19 03:19:57;;;;;;;1.20;1.20;;;19.20;64.10;;;;;;5010136;28;43954;-72
2022/04/19 03:27:41;;;;;;;1.10;1.10;;;19.20;63.60;;;;;;5010588;28;44044;-71
2022/04/19 03:28:06;;;;;;;0.83;0.83;;;19.20;63.20;;;;;;4985108;28;45879;-71
2022/04/19 03:30:34;;;;;;;1.10;1.10;;;19.10;63.30;;;;;;5010343;28;44116;-72
2022/04/19 03:33:02;;;;;;;0.90;0.90;;;19.00;64.20;;;;;;5009838;28;43887;-72
2022/04/19 03:35:30;;;;;;;0.90;0.90;;;19.00;63.70;;;;;;5028658;28;43985;-72
2022/04/19 03:38:00;;;;;;;0.97;0.97;;;18.90;63.80;;;;;;5009705;28;45997;-72
2022/04/19 03:40:28;;;;;;;1.00;1.00;;;18.90;63.90;;;;;;5010166;28;46407;-72
2022/04/19 03:42:56;;;;;;;1.03;1.03;;;18.90;64.00;;;;;;5010449;28;44243;-72
2022/04/19 03:45:27;;;;;;;1.20;1.20;;;18.90;64.10;;;;;;5010600;28;44194;-73
2022/04/19 03:47:55;;;;;;;0.93;0.93;;;18.80;64.20;;;;;;5010276;28;44935;-72
2022/04/19 03:50:25;;;;;;;1.03;1.03;;;18.90;64.60;;;;;;5010195;28;44711;-72
2022/04/19 03:52:53;;;;;;;1.17;1.17;;;19.00;64.40;;;;;;5028544;28;44067;-71
2022/04/19 03:55:23;;;;;;;1.10;1.10;;;19.20;64.10;;;;;;5010622;28;43851;-72
2022/04/19 03:57:51;;;;;;;1.10;1.10;;;19.40;63.50;;;;;;5010170;28;45701;-71
2022/04/19 04:00:21;;;;;;;1.10;1.10;;;19.50;63.00;;;;;;5027983;28;43863;-72
2022/04/19 04:02:50;;;;;;;1.10;1.10;;;19.50;62.80;;;;;;5010143;28;44262;-72
2022/04/19 04:05:24;;;;;;;1.10;1.10;;;19.50;62.70;;;;;;5010955;28;44038;-72
2022/04/19 04:07:57;;;;;;;1.10;1.10;;;19.40;62.60;;;;;;5009301;28;43973;-72
2022/04/19 04:10:27;;;;;;;1.17;1.17;;;19.20;62.70;;;;;;5009717;28;43930;-71
2022/04/19 04:12:57;;;;;;;1.10;1.10;;;19.20;63.10;;;;;;5027976;28;43879;-71
2022/04/19 04:15:25;;;;;;;1.10;1.10;;;19.10;63.30;;;;;;5010023;28;43974;-71
2022/04/19 04:17:56;;;;;;;1.10;1.10;;;19.00;63.50;;;;;;5008851;28;45817;-71
2022/04/19 04:20:24;;;;;;;1.10;1.10;;;19.00;63.70;;;;;;5019661;28;43737;-71
2022/04/19 04:22:53;;;;;;;1.10;1.10;;;18.90;64.30;;;;;;5004803;28;44114;-71
2022/04/19 04:25:23;;;;;;;1.97;1.10;;;19.00;64.40;;;;;;5010016;28;43989;-71
2022/04/19 04:27:52;;;;;;;2.43;1.60;;;19.10;64.10;;;;;;4996208;28;43915;-72
2022/04/19 04:30:21;;;;;;;1.40;1.37;;;19.20;63.60;;;;;;5009298;28;44517;-72
2022/04/19 04:32:58;;;;;;;1.90;1.70;;;19.20;63.20;;;;;;4992572;28;43558;-71
2022/04/19 04:35:27;;;;;;;1.87;1.70;;;19.20;62.90;;;;;;4991222;28;43553;-72
2022/04/19 04:37:54;;;;;;;1.80;1.70;;;19.10;63.00;;;;;;5008075;28;43938;-72
2022/04/19 04:40:24;;;;;;;4.13;1.83;;;19.10;63.50;;;;;;5006765;28;45009;-72
2022/04/19 04:42:58;;;;;;;3.17;2.30;;;19.00;63.60;;;;;;4990148;28;44069;-72
2022/04/19 04:45:26;;;;;;;4.93;2.63;;;18.90;63.70;;;;;;4987692;28;44023;-71
2022/04/19 04:50:42;;;;;;;5.27;3.57;;;18.80;63.90;;;;;;4997037;28;44513;-72
2022/04/19 04:53:11;;;;;;;8.60;4.30;;;18.80;64.10;;;;;;5009122;28;44151;-72
2022/04/19 04:55:44;;;;;;;10.40;4.27;;;18.80;64.20;;;;;;5009843;28;43381;-71
2022/04/19 04:58:21;;;;;;;10.40;4.23;;;18.80;64.60;;;;;;5009219;28;46655;-72
2022/04/19 05:00:49;;;;;;;9.67;4.17;;;19.00;64.50;;;;;;5009048;28;44335;-71
2022/04/19 05:03:23;;;;;;;13.87;4.67;;;19.20;64.00;;;;;;5009491;28;44021;-72
2022/04/19 05:05:52;;;;;;;10.27;4.63;;;19.30;63.40;;;;;;5009652;28;43428;-72
2022/04/19 05:08:20;;;;;;;10.03;5.17;;;19.50;62.90;;;;;;5010227;28;43843;-72
2022/04/19 05:10:48;;;;;;;13.73;5.43;;;19.50;62.60;;;;;;4999987;28;44082;-72
2022/04/19 05:13:21;;;;;;;9.93;5.00;;;19.50;62.50;;;;;;5009259;28;43854;-72
2022/04/19 05:15:50;;;;;;;14.00;5.40;;;19.40;62.60;;;;;;5027355;28;43956;-71
2022/04/19 05:18:19;;;;;;;10.93;4.77;;;19.30;62.80;;;;;;5003956;28;44346;-72
2022/04/19 05:20:52;;;;;;;9.63;5.07;;;19.20;63.00;;;;;;5005747;28;45093;-72
2022/04/19 05:23:21;;;;;;;10.30;4.90;;;19.10;63.30;;;;;;4990090;28;44010;-72
2022/04/19 05:25:49;;;;;;;11.33;4.73;;;19.00;63.50;;;;;;5008991;28;43923;-73
2022/04/19 05:28:18;;;;;;;11.97;5.70;;;18.90;63.70;;;;;;5007274;28;43950;-72
2022/04/19 05:30:50;;;;;;;11.53;5.60;;;18.90;64.20;;;;;;5008684;28;43949;-71
2022/04/19 05:33:19;;;;;;;13.10;5.07;;;18.90;64.30;;;;;;5008208;28;44119;-72
2022/04/19 05:35:47;;;;;;;10.93;5.27;;;19.10;64.30;;;;;;5003197;28;43551;-72
2022/04/19 05:38:16;;;;;;;9.70;5.00;;;19.20;63.70;;;;;;4982308;28;47139;-72
2022/04/19 05:40:44;;;;;;;9.40;5.07;;;19.20;63.30;;;;;;4989664;28;44535;-72
2022/04/19 05:43:14;;;;;;;10.17;4.87;;;19.10;63.30;;;;;;4982594;28;43999;-71
2022/04/19 05:45:46;;;;;;;8.43;4.87;;;19.10;63.50;;;;;;5003024;28;44021;-72
2022/04/19 05:48:15;;;;;;;9.83;4.77;;;19.00;63.60;;;;;;5007657;28;43995;-72
2022/04/19 05:50:43;;;;;;;8.30;4.83;;;18.90;63.70;;;;;;5007701;28;44641;-71
2022/04/19 05:53:12;;;;;;;7.70;4.67;;;18.90;64.00;;;;;;4987301;28;44056;-72
2022/04/19 05:55:41;;;;;;;9.70;5.27;;;18.80;64.10;;;;;;5006250;28;43610;-72
2022/04/19 05:58:09;;;;;;;8.87;4.67;;;18.80;64.20;;;;;;5004955;28;45386;-72
2022/04/19 06:00:37;;;;;;;11.60;5.30;;;18.80;64.30;;;;;;4989586;28;44934;-72
2022/04/19 06:05:51;;;;;;;9.37;4.67;;;18.80;64.70;;;;;;4993233;28;43966;-72
2022/04/19 06:08:20;;;;;;;6.67;4.33;;;18.90;64.30;;;;;;5007907;28;44100;-73
2022/04/19 06:11:03;;;;;;;9.83;4.83;;;19.20;64.00;;;;;;5007678;28;43918;-72
2022/04/19 06:13:33;;;;;;;8.00;4.70;;;19.30;63.30;;;;;;5007942;28;43477;-72
2022/04/19 06:16:03;;;;;;;7.90;4.63;;;19.40;63.00;;;;;;5001382;28;44003;-72
2022/04/19 06:18:35;;;;;;;10.20;4.60;;;19.40;62.50;;;;;;5007718;28;43845;-72
2022/04/19 06:21:11;;;;;;;6.63;4.53;;;19.30;62.50;;;;;;5008211;28;44997;-72
2022/04/19 06:23:39;;;;;;;7.13;4.50;;;19.20;62.80;;;;;;5026449;28;44000;-73
2022/04/19 06:26:09;;;;;;;4.87;4.00;;;19.10;63.00;;;;;;5008257;28;43946;-72
2022/04/19 06:28:38;;;;;;;5.03;4.03;;;19.10;63.40;;;;;;5007935;28;43867;-71
2022/04/19 06:31:17;;;;;;;7.00;4.17;;;19.00;63.50;;;;;;5022809;28;43891;-71
2022/04/19 06:34:03;;;;;;;6.60;4.57;;;18.90;63.60;;;;;;5008069;28;43898;-71
2022/04/19 06:36:49;;;;;;;8.50;4.93;;;18.90;63.80;;;;;;5008420;28;43512;-71
2022/04/19 06:39:17;;;;;;;6.10;4.30;;;18.90;64.40;;;;;;5007509;28;43916;-72
2022/04/19 06:41:47;;;;;;;5.60;4.03;;;19.00;64.40;;;;;;5008088;28;43989;-72
2022/04/19 06:44:17;;;;;;;7.40;4.53;;;19.10;64.00;;;;;;5008003;28;43895;-72
2022/04/19 06:46:47;;;;;;;4.87;4.20;;;19.30;63.50;;;;;;5008095;28;43957;-72
2022/04/19 06:49:18;;;;;;;5.53;4.47;;;19.40;63.10;;;;;;5007502;28;44037;-71
2022/04/19 06:51:46;;;;;;;8.13;4.20;;;19.40;62.70;;;;;;5008089;28;44452;-72
2022/04/19 06:54:15;;;;;;;6.83;4.17;;;19.30;62.60;;;;;;5007711;28;44040;-71
2022/04/19 06:56:51;;;;;;;5.90;4.50;;;19.20;62.80;;;;;;5026214;28;43905;-73
2022/04/19 06:59:21;;;;;;;6.03;3.97;;;19.20;63.20;;;;;;5007555;28;47457;-72
2022/04/19 07:01:49;;;;;;;5.07;3.83;;;19.10;63.40;;;;;;5007656;28;44854;-72
2022/04/19 07:04:37;;;;;;;5.73;4.07;;;19.00;63.50;;;;;;5024644;28;43930;-71
2022/04/19 07:07:08;;;;;;;7.40;4.07;;;18.90;63.70;;;;;;5007881;28;44061;-72
2022/04/19 07:09:37;;;;;;;6.03;4.27;;;18.90;64.00;;;;;;5007422;28;43922;-72
2022/04/19 07:12:09;;;;;;;5.70;4.60;;;18.90;64.30;;;;;;5025494;28;44131;-72
2022/04/19 07:14:51;;;;;;;6.70;4.47;;;18.90;64.50;;;;;;5007639;28;43404;-72
2022/04/19 07:17:41;;;;;;;5.23;4.40;;;19.10;64.20;;;;;;5006982;28;44002;-72
2022/04/19 07:28:35;;;;;;;4.50;3.50;;;19.10;63.50;;;;;;4988480;28;44062;-71
2022/04/19 07:31:04;;;;;;;4.43;3.67;;;19.00;63.70;;;;;;4988054;28;44020;-72
2022/04/19 07:33:37;;;;;;;4.13;3.73;;;18.90;63.90;;;;;;4996413;28;43930;-72
2022/04/19 07:36:06;;;;;;;5.57;3.70;;;18.90;64.10;;;;;;5023353;28;43477;-71
2022/04/19 07:38:34;;;;;;;4.70;3.70;;;18.80;64.20;;;;;;5007579;28;43842;-72
2022/04/19 07:41:06;;;;;;;5.97;3.83;;;18.80;64.30;;;;;;5021478;28;44782;-72
2022/04/19 07:43:39;;;;;;;5.00;4.10;;;18.80;64.40;;;;;;5006660;28;44718;-71
2022/04/19 07:46:15;;;;;;;4.63;3.80;;;18.70;64.60;;;;;;5006920;28;43799;-72
2022/04/19 07:48:44;;;;;;;4.27;3.73;;;18.80;64.80;;;;;;5002455;28;43884;-72
2022/04/19 07:51:12;;;;;;;5.10;3.60;;;18.90;64.50;;;;;;4993921;28;45741;-72
2022/04/19 07:53:42;;;;;;;5.33;3.83;;;19.10;64.00;;;;;;4992718;28;43970;-72
2022/04/19 07:56:17;;;;;;;4.03;3.60;;;19.30;63.50;;;;;;5009844;28;43776;-72
2022/04/19 07:58:47;;;;;;;3.80;3.43;;;19.40;63.00;;;;;;5010695;28;43644;-71
2022/04/19 08:01:16;;;;;;;4.23;3.20;;;19.40;62.80;;;;;;4990766;28;45611;-71
2022/04/19 08:03:44;;;;;;;3.73;3.33;;;19.30;62.80;;;;;;5009504;28;43990;-73
2022/04/19 08:06:13;;;;;;;3.37;3.17;;;19.20;62.90;;;;;;4998454;28;43956;-72
2022/04/19 08:08:43;;;;;;;4.33;3.50;;;19.10;63.20;;;;;;5021976;28;43898;-72
2022/04/19 08:11:11;;;;;;;4.43;3.13;;;19.10;63.60;;;;;;4988075;28;45369;-73
2022/04/19 08:13:40;;;;;;;3.80;3.40;;;19.00;63.70;;;;;;4990777;28;45358;-72
2022/04/19 08:16:09;;;;;;;3.20;3.00;;;18.90;63.90;;;;;;4988344;28;43999;-71
2022/04/19 08:18:40;;;;;;;3.80;3.60;;;18.90;64.10;;;;;;5010532;28;44211;-72
2022/04/19 08:21:08;;;;;;;3.47;2.87;;;18.80;64.30;;;;;;5027943;28;43584;-72
2022/04/19 08:23:36;;;;;;;3.50;3.20;;;18.90;64.60;;;;;;5009900;28;44049;-72
2022/04/19 08:26:08;;;;;;;3.20;3.00;;;19.00;64.40;;;;;;5009645;28;44042;-72
2022/04/19 08:28:37;;;;;;;3.80;3.43;;;19.20;64.00;;;;;;5010358;28;43969;-73
2022/04/19 08:31:05;;;;;;;3.70;3.40;;;19.30;63.40;;;;;;5009598;28;44967;-71
2022/04/19 08:33:35;;;;;;;3.27;2.97;;;19.40;63.00;;;;;;5009913;28;44652;-72
2022/04/19 08:36:08;;;;;;;3.40;3.10;;;19.30;62.70;;;;;;5009720;28;44062;-72
2022/04/19 08:38:36;;;;;;;3.30;3.00;;;19.30;62.90;;;;;;5028394;28;44002;-72
2022/04/19 08:41:05;;;;;;;3.17;2.90;;;19.20;63.00;;;;;;5009261;28;44964;-71
2022/04/19 08:43:34;;;;;;;3.50;3.20;;;19.10;63.30;;;;;;5009556;28;43370;-71
2022/04/19 08:46:02;;;;;;;2.90;2.70;;;19.00;63.40;;;;;;5027736;28;44031;-72
2022/04/19 08:48:31;;;;;;;3.00;2.80;;;18.90;63.50;;;;;;5027943;28;43764;-71
2022/04/19 08:51:02;;;;;;;2.90;2.70;;;18.90;63.80;;;;;;5027621;28;44675;-71
2022/04/19 08:59:02;;;;;;;3.17;2.90;;;18.90;64.40;;;;;;5027653;28;44101;-72
2022/04/19 09:01:32;;;;;;;3.20;2.90;;;19.10;64.20;;;;;;5008606;28;46850;-72
2022/04/19 09:04:04;;;;;;;3.20;3.00;;;19.20;63.70;;;;;;5026621;28;43988;-71
2022/04/19 09:06:54;;;;;;;2.60;2.50;;;19.30;63.30;;;;;;5027340;28;43969;-72
2022/04/19 09:09:23;;;;;;;3.10;2.80;;;19.20;63.00;;;;;;5027925;28;43433;-72
2022/04/19 09:11:52;;;;;;;2.93;2.73;;;19.20;63.30;;;;;;5009378;28;47345;-71
2022/04/19 09:14:19;;;;;;;3.00;2.90;;;19.10;63.40;;;;;;5027094;28;43831;-72
2022/04/19 09:16:47;;;;;;;2.60;2.50;;;19.00;63.60;;;;;;5012279;28;43811;-71
2022/04/19 09:19:20;;;;;;;2.80;2.60;;;18.90;63.70;;;;;;5027440;28;43922;-72
2022/04/19 09:21:49;;;;;;;2.60;2.50;;;18.90;64.00;;;;;;5021064;28;43909;-72
2022/04/19 09:24:19;;;;;;;2.60;2.50;;;18.80;64.10;;;;;;5020726;28;44562;-72
2022/04/19 09:26:48;;;;;;;2.60;2.50;;;18.80;64.30;;;;;;5027957;28;43930;-72
2022/04/19 09:29:17;;;;;;;2.60;2.50;;;18.80;64.40;;;;;;5026955;28;43825;-73
2022/04/19 09:31:45;;;;;;;2.40;2.30;;;18.80;64.70;;;;;;5026805;28;43936;-72
2022/04/19 09:34:23;;;;;;;2.50;2.40;;;18.90;64.60;;;;;;5026501;28;43887;-72
2022/04/19 09:36:54;;;;;;;2.57;2.47;;;19.10;64.10;;;;;;5027276;28;43472;-72
2022/04/19 09:39:27;;;;;;;2.20;2.10;;;19.30;63.60;;;;;;5026353;28;44041;-72
2022/04/19 09:42:01;;;;;;;2.43;2.33;;;19.30;63.20;;;;;;5026834;28;44042;-72
2022/04/19 09:44:29;;;;;;;2.30;2.20;;;19.30;63.10;;;;;;5026900;28;44020;-72
2022/04/19 09:47:04;;;;;;;2.33;2.23;;;19.20;63.10;;;;;;5026514;28;44029;-71
2022/04/19 09:49:44;;;;;;;2.40;2.30;;;19.10;63.40;;;;;;5027390;28;43976;-73
2022/04/19 09:52:32;;;;;;;2.50;2.40;;;19.00;63.60;;;;;;5026384;28;44844;-72
2022/04/19 09:55:02;;;;;;;2.50;2.40;;;18.90;63.80;;;;;;5022484;28;43910;-72
2022/04/19 09:57:30;;;;;;;2.50;2.40;;;18.90;64.00;;;;;;5025142;28;44276;-72
2022/04/19 09:59:58;;;;;;;2.50;2.40;;;18.80;64.20;;;;;;5025047;28;44254;-72
2022/04/19 10:08:14;;;;;;;2.10;2.00;;;18.90;64.60;;;;;;4995343;28;43817;-72
2022/04/19 10:10:48;;;;;;;2.50;2.40;;;19.00;64.20;;;;;;5027166;28;44026;-71
2022/04/19 10:13:18;;;;;;;2.60;2.50;;;19.00;63.80;;;;;;5025459;28;43993;-72
2022/04/19 10:15:46;;;;;;;2.37;2.27;;;19.00;63.80;;;;;;5024855;28;45218;-71
2022/04/19 10:18:13;;;;;;;2.13;2.03;;;18.90;64.00;;;;;;5026090;28;44057;-72
2022/04/19 10:20:43;;;;;;;2.20;2.10;;;18.90;64.20;;;;;;5008912;28;43996;-72
2022/04/19 10:23:11;;;;;;;2.40;2.30;;;18.80;64.30;;;;;;5007775;28;47127;-72
2022/04/19 10:25:43;;;;;;;2.37;2.27;;;18.80;64.50;;;;;;5026274;28;43925;-71
2022/04/19 10:28:13;;;;;;;2.03;1.93;;;18.80;64.60;;;;;;5026181;28;43953;-72
2022/04/19 10:30:48;;;;;;;2.20;2.10;;;18.70;64.70;;;;;;5026173;28;43984;-71
2022/04/19 10:33:45;;;;;;;1.80;1.80;;;18.70;64.80;;;;;;5019567;28;43954;-72
2022/04/19 10:36:14;;;;;;;2.23;2.13;;;18.70;64.90;;;;;;5026273;28;43948;-72
2022/04/19 10:38:42;;;;;;;2.20;2.10;;;18.70;65.10;;;;;;5026248;28;44028;-72
2022/04/19 10:41:10;;;;;;;2.27;2.17;;;18.80;64.90;;;;;;5025959;28;43998;-72
2022/04/19 10:43:39;;;;;;;2.10;2.00;;;19.00;64.40;;;;;;5025697;28;44691;-72
2022/04/19 10:46:20;;;;;;;1.83;1.83;;;19.20;63.90;;;;;;5025767;28;43344;-73
2022/04/19 10:49:21;;;;;;;2.03;1.93;;;19.30;63.50;;;;;;5026116;28;43938;-72
2022/04/19 10:51:50;;;;;;;1.87;1.87;;;19.40;63.20;;;;;;4985362;28;44012;-72
2022/04/19 10:54:18;;;;;;;2.10;2.00;;;19.30;63.20;;;;;;5025873;28;44672;-72
2022/04/19 10:58:05;;;;;;;1.80;1.80;;;19.20;63.40;;;;;;5025905;28;43350;-72
2022/04/19 11:00:25;;;;;;;1.60;1.60;;;19.10;63.70;;;;;;5025391;28;44119;-71
2022/04/19 11:03:13;;;;;;;1.83;1.73;;;19.00;64.00;;;;;;5023242;28;44018;-71
2022/04/19 11:05:43;;;;;;;1.60;1.60;;;18.90;64.20;;;;;;5027379;28;43827;-72
2022/04/19 11:08:33;;;;;;;1.70;1.70;;;18.90;64.30;;;;;;5025529;28;44087;-71
2022/04/19 11:11:31;;;;;;;1.70;1.70;;;18.90;64.70;;;;;;5007861;28;43376;-72
2022/04/19 11:14:46;;;;;;;1.77;1.77;;;18.90;64.80;;;;;;5026066;28;43932;-72
2022/04/19 11:17:28;;;;;;;1.80;1.80;;;19.00;64.40;;;;;;5004051;28;47702;-72
2022/04/19 11:19:57;;;;;;;1.80;1.80;;;19.10;64.00;;;;;;5025594;28;43957;-72
2022/04/19 11:22:29;;;;;;;1.90;1.90;;;19.10;64.00;;;;;;5026294;28;43953;-72
2022/04/19 11:25:04;;;;;;;1.87;1.87;;;19.00;64.00;;;;;;5025888;28;43960;-72
2022/04/19 11:28:10;;;;;;;1.60;1.60;;;19.00;64.20;;;;;;5023130;28;43842;-71
2022/04/19 11:30:38;;;;;;;1.60;1.60;;;18.90;64.40;;;;;;5028856;28;43901;-72
2022/04/19 11:33:08;;;;;;;1.53;1.53;;;18.90;64.60;;;;;;5029021;28;44068;-71
2022/04/19 11:35:36;;;;;;;2.03;2.03;;;18.80;64.70;;;;;;5029318;28;43948;-72
2022/04/19 11:38:05;;;;;;;1.77;1.77;;;18.80;64.80;;;;;;5028636;28;45082;-71
2022/04/19 11:48:54;;;;;;;1.43;1.43;;;18.90;65.00;;;;;;5004269;28;44147;-72
2022/04/19 11:51:23;;;;;;;1.60;1.50;;;19.10;64.50;;;;;;5022611;28;43480;-72
2022/04/19 11:53:53;;;;;;;1.77;1.77;;;19.20;64.00;;;;;;5029021;28;43342;-71
2022/04/19 11:56:22;;;;;;;1.50;1.40;;;19.30;63.60;;;;;;5029380;28;43850;-72
2022/04/19 11:58:52;;;;;;;1.67;1.67;;;19.30;63.50;;;;;;5028610;28;45094;-71
2022/04/19 12:01:20;;;;;;;1.50;1.50;;;19.20;63.60;;;;;;5028414;28;44000;-72
2022/04/19 12:03:48;;;;;;;1.73;1.73;;;19.20;63.90;;;;;;5028749;28;43913;-71
2022/04/19 12:06:18;;;;;;;1.60;1.60;;;19.10;64.10;;;;;;5028898;28;43767;-72
2022/04/19 12:08:49;;;;;;;1.47;1.47;;;19.00;64.30;;;;;;5028605;28;43998;-72
2022/04/19 12:11:19;;;;;;;1.40;1.40;;;18.90;64.50;;;;;;5009810;28;44603;-72
2022/04/19 12:13:47;;;;;;;1.50;1.50;;;18.90;64.70;;;;;;5028542;28;44003;-72
2022/04/19 12:16:37;;;;;;;1.77;1.73;;;18.90;64.80;;;;;;5028024;28;43313;-73
2022/04/19 12:19:07;;;;;;;1.33;1.33;;;18.80;65.00;;;;;;5021899;28;43813;-71
2022/04/19 12:21:38;;;;;;;1.57;1.57;;;18.90;65.10;;;;;;5028104;28;43906;-72
2022/04/19 12:24:07;;;;;;;1.40;1.40;;;19.00;64.70;;;;;;5028118;28;43880;-72
2022/04/19 12:26:36;;;;;;;1.60;1.60;;;19.20;64.10;;;;;;5028615;28;43941;-72
2022/04/19 12:29:08;;;;;;;1.43;1.43;;;19.30;63.70;;;;;;5027923;28;43877;-71
2022/04/19 12:31:39;;;;;;;1.50;1.50;;;19.30;63.50;;;;;;5021701;28;43892;-72
2022/04/19 12:34:07;;;;;;;1.43;1.43;;;19.30;63.70;;;;;;5020440;28;43965;-71
2022/04/19 12:36:43;;;;;;;1.27;1.27;;;19.20;63.80;;;;;;5027766;28;43863;-71
2022/04/19 12:39:11;;;;;;;1.60;1.60;;;19.10;64.10;;;;;;5009386;28;45753;-72
2022/04/19 12:41:40;;;;;;;1.20;1.20;;;19.00;64.30;;;;;;5027859;28;43503;-72
2022/04/19 12:44:08;;;;;;;1.50;1.50;;;18.90;64.40;;;;;;5027761;28;43413;-71
2022/04/19 12:46:40;;;;;;;1.20;1.20;;;18.90;64.60;;;;;;5027714;28;44009;-72
2022/04/19 12:49:09;;;;;;;1.53;1.53;;;18.90;64.80;;;;;;5027722;28;43593;-72
2022/04/19 12:51:37;;;;;;;1.47;1.47;;;18.80;64.80;;;;;;5009415;28;44782;-72
2022/04/19 12:54:07;;;;;;;1.33;1.33;;;18.80;65.20;;;;;;5027455;28;43477;-72
2022/04/19 12:56:38;;;;;;;1.50;1.50;;;18.90;65.20;;;;;;5027878;28;43867;-72
2022/04/19 12:59:06;;;;;;;1.30;1.30;;;19.00;64.80;;;;;;5026961;28;44203;-72
2022/04/19 13:01:34;;;;;;;1.40;1.40;;;19.10;64.30;;;;;;5009355;28;44618;-72
2022/04/19 13:04:04;;;;;;;1.30;1.30;;;19.20;64.00;;;;;;5027515;28;44071;-72
2022/04/19 13:12:17;;;;;;;1.20;1.20;;;19.10;64.40;;;;;;5027419;28;43969;-73
2022/04/19 13:14:45;;;;;;;1.40;1.40;;;19.00;64.50;;;;;;5027274;28;43941;-72
2022/04/19 13:17:22;;;;;;;1.30;1.30;;;18.90;64.60;;;;;;5027450;28;44051;-72
2022/04/19 13:19:50;;;;;;;1.43;1.43;;;18.90;64.90;;;;;;5027269;28;44233;-73
2022/04/19 13:22:18;;;;;;;1.20;1.20;;;18.80;64.90;;;;;;5027101;28;44014;-72
2022/04/19 13:24:47;;;;;;;1.13;1.13;;;18.80;65.00;;;;;;5027512;28;43977;-72
2022/04/19 13:27:17;;;;;;;1.50;1.50;;;18.80;65.10;;;;;;5027344;28;43932;-71
2022/04/19 13:29:45;;;;;;;1.50;1.50;;;18.80;65.30;;;;;;5026855;28;43955;-72
2022/04/19 13:32:13;;;;;;;1.40;1.40;;;18.90;65.10;;;;;;5026888;28;44036;-71
2022/04/19 13:34:41;;;;;;;1.30;1.30;;;19.10;64.70;;;;;;5027516;28;43442;-71
2022/04/19 13:37:09;;;;;;;1.53;1.20;;;19.20;64.20;;;;;;5009170;28;43843;-72
2022/04/19 13:39:37;;;;;;;1.40;1.40;;;19.30;63.80;;;;;;5026766;28;45008;-72
2022/04/19 13:42:06;;;;;;;1.47;1.27;;;19.30;63.60;;;;;;5026612;28;43898;-72
2022/04/19 13:44:37;;;;;;;1.20;1.20;;;19.20;63.70;;;;;;5026946;28;43389;-73
2022/04/19 13:47:06;;;;;;;1.70;1.60;;;19.20;64.00;;;;;;5026785;28;44080;-71
2022/04/19 13:49:34;;;;;;;1.30;1.30;;;19.10;64.10;;;;;;5025943;28;43979;-72
2022/04/19 13:52:02;;;;;;;1.47;1.47;;;19.00;64.10;;;;;;5025862;28;43398;-72